Marana, AZ (85653)

4:03 PM MST on November 26, 2014 (GMT -0700)
El Tiro Gliderport | Change Station
CLOSE
Current Station
Personal Weather Station
Location: Marana, AZ
Elevation: 2100 ft
Nearby Weather Stations

Elev 2100 ft 32.43 °N, 111.39 °W | Updated 24 seconds ago

Clear
Clear
71.2 °F
Feels Like 72 °F
N
6.0
Wind Variable Wind from NNW
Gusts 7.4 mph

Today
High -- | Low -- °F
--% Chance of Precip.
Yesterday
High -- | Low -- °F
Precip. -- in
7:04 AM 5:20 PM
Waxing Crescent, 23% visible
Pressure 30.21 in
Visibility 10.0 miles
Clouds Clear
Heat Index 72 °F
Dew Point 12 °F
Humidity 10%
Rainfall 0.00 in
Snow Depth Not available.
UV 1 out of 12
Pollen 3.30 out of 12
Air Quality Not available.
Flu Activity Not available.
METAR KRYN 262245Z 30010KT 10SM CLR 24/M05 A3021

More Conditions Fewer Conditions

Pressure 30.21 in
Visibility 10.0 miles
Clouds Clear
Heat Index 72 °F
Dew Point 12 °F
Humidity 10%
Rainfall 0.00 in
Snow Depth Not available.
UV 1 out of 12
Pollen 3.30 out of 12
Air Quality Not available.
Flu Activity Not available.
METAR KRYN 262245Z 30010KT 10SM CLR 24/M05 A3021

More Conditions Fewer Conditions

10-Day Weather Forecast

Almanac

Astronomy

Nov. 26, 2014 Rise Set
Actual Time
Civil Twilight
Nautical Twilight
Astronomical Twilight
Moon
Length of Visible Light
Length of Day
Tomorrow will be .
, % of the Moon is Illuminated

Today's Extremes

State Highs State Lows

Community

WunderPhotos

Upload Photos

1,773,913 photos uploaded!

WunderBlogs® & News

Nearby

Air Quality

  Air Quality AQ Index Pollutant
Not available.

Snow Depth

Station Depth Elevation

Earthquake Activity

City Distance Mag. Time & Date
Minimum magnitude displayed is 2.5.

Coastal Water Temperatures

Place Temperature

Nearby Weather Stations